Forest Hill, Texas
Current Conditions -  °F | °C
As of 10:55 PM on Saturday 22 Nov 2014 (Local Time) from KFWS Reporting Station
Clear Clear  
Wind Chill: 57°   Ceiling: Unl
Heat Index: 57°   Visibility: 7mi
Dew Point: 54°   Wind: 9mph
Humidity: 90%   Direction: 130°SE
Pressure: 29.7"   Gusts: NA
Location:  32.66°N, 97.27°W
Report Text: KFWS 230455Z AUTO 13008KT 7SM CLR 14/12 A2970 RMK AO2 T01400124
Loading
Personal Weather Stations






























Interactive Weather Map New forecast layout! Learn more

10-Day Weather Forecast

Advertisements
Track Severe Weather on mobile